This is the latest recevied weather packets stored in our database for station/object SV4FHR-2. If no packets are shown the sender has not sent any weather packets the latest 10 day(s).
| Time | Temp. | Humidity | Pressure | Rain* | Wind** | Luminosity | Snow |
|---|---|---|---|---|---|---|---|
| 1778082582 | 26.11° C | 43% | 1011 hPa | 0 mm | - | - | - |
| 1778082281 | 26.11° C | 43% | 1011.2 hPa | 0 mm | - | - | - |
| 1778081981 | 26.67° C | 43% | 1011.2 hPa | 0 mm | - | - | - |
| 1778081681 | 26.67° C | 43% | 1011.2 hPa | 0 mm | - | - | - |
| 1778081381 | 26.67° C | 43% | 1011.4 hPa | 0 mm | - | - | - |
| 1778081080 | 26.67° C | 44% | 1011.2 hPa | 0 mm | - | - | - |
| 1778080780 | 27.22° C | 44% | 1011.1 hPa | 0 mm | - | - | - |
| 1778080480 | 27.78° C | 47% | 1011.3 hPa | 0 mm | - | - | - |
| 1778002081 | 20.56° C | 63% | 1011.1 hPa | 0 mm | - | - | - |
| 1778001781 | 20.56° C | 61% | 1011.2 hPa | 0 mm | - | - | - |
| 1778001481 | 20.56° C | 61% | 1011.2 hPa | 0 mm | - | - | - |
| 1778001180 | 21.11° C | 60% | 1011.2 hPa | 0 mm | - | - | - |
| 1778000880 | 21.11° C | 61% | 1011.1 hPa | 0 mm | - | - | - |
| 1778000580 | 21.67° C | 61% | 1011.1 hPa | 0 mm | - | - | - |
| 1778000280 | 21.67° C | 60% | 1011.3 hPa | 0 mm | - | - | - |
| 1777999980 | 22.78° C | 50% | 1011.1 hPa | 0 mm | - | - | - |
| 1777999680 | 23.33° C | 46% | 1011.4 hPa | 0 mm | - | - | - |
| 1777999380 | 23.89° C | 45% | 1011.3 hPa | 0 mm | - | - | - |
| 1777999080 | 23.89° C | 45% | 1011.2 hPa | 0 mm | - | - | - |
| 1777998780 | 24.44° C | 45% | 1011.2 hPa | 0 mm | - | - | - |
| 1777998479 | 24.44° C | 46% | 1011.1 hPa | 0 mm | - | - | - |
| 1777998179 | 25° C | 47% | 1011 hPa | 0 mm | - | - | - |
| 1777997879 | 25° C | 46% | 1011.3 hPa | 0 mm | - | - | - |
| 1777997580 | 25.56° C | 45% | 1011.2 hPa | 0 mm | - | - | - |
| 1777997280 | 26.11° C | 46% | 1011.4 hPa | 0 mm | - | - | - |
* Rain latest hour (hover to see other rain measurements)
** Current wind speed in m/s (hover to see current wind gust speed)